• Join FlightAware (Why Join?)
  • Login
  • US Flag 
12:59AM EDT


 

Airport Tracker/Info


-or-


 

Live Flight TrackerFlight Track Log ✈ AWE3397 ✈ 20-Mar-2014 ✈ KPHL - KMCI

Flight Track Log - Related Links

Times and Time Zones

All times are in EDT time to prevent confusion due to time zone crossing. See the AWE3397 flight status page for this flight to view local times or setup timezone preferences in your user account.

Time Position Orientation Groundspeed Altitude Reporting Facility
EDT Latitude Longitude Course Direction KTS MPH feet Rate Location/Type
08:18AM 39.8667 -75.2833 270° West 146 168 800  Level Philadelphia TRACON
08:20AM 39.9000 -75.5560 270° West  Level FlightAware Approximate
08:20AM 39.8481 -75.3892 257° West 200 230 4,400  Level New York Center
08:21AM 39.9161 -75.6646 288° West  Level FlightAware Approximate
08:21AM 39.8714 -75.4800 289° West 229 264 8,100  Level New York Center
08:22AM 39.9000 -75.7740 270° West  Level FlightAware Approximate
08:22AM 39.8872 -75.5567 285° West 248 285 10,800  Level New York Center
08:23AM 39.9001 -75.8859 270° West  Level FlightAware Approximate
08:23AM 39.9139 -75.6642 288° West 265 305 12,800  Level New York Center
08:24AM 39.9158 -75.7672 271° West 284 327 15,100 2,520 Climbing New York Center
08:25AM 39.9139 -75.8617 268° West 290 334 17,900 2,640 Climbing New York Center
08:26AM 39.9153 -75.9756 271° West 290 334 20,400 2,220 Climbing New York Center
08:27AM 39.9103 -76.0861 267° West 290 334 22,400 1,800 Climbing New York Center
08:28AM 39.9117 -76.1972 271° West 300 345 24,100 1,740 Climbing New York Center
08:29AM 39.9108 -76.3028 269° West 312 359 25,900 1,560 Climbing New York Center
08:30AM 39.9156 -76.4194 273° West 322 371 27,300 1,320 Climbing New York Center
08:31AM 39.9225 -76.5364 274° West 327 376 28,600 1,140 Climbing New York Center
08:32AM 39.9269 -76.6561 273° West 332 382 29,600 900 Climbing New York Center
08:33AM 39.9314 -76.7783 273° West 332 382 30,500 720 Climbing New York Center
08:34AM 39.9353 -76.9031 272° West 338 389 31,100 780 Climbing New York Center
08:35AM 39.9411 -77.0308 273° West 350 403 32,100 1,020 Climbing New York Center
08:36AM 39.9447 -77.1586 272° West 350 403 33,200 840 Climbing New York Center
08:37AM 39.9481 -77.2861 272° West 350 403 33,900 360 Climbing New York Center
08:38AM 39.9536 -77.4114 273° West 350 403 34,000  Climbing New York Center
08:39AM 39.9619 -77.6500 273° West 370 426 34,000  Level Cleveland Center
08:40AM 39.9656 -77.7842 272° West 370 426 34,000  Level Cleveland Center
08:41AM 39.9697 -77.9178 272° West 370 426 34,000  Level Cleveland Center
08:42AM 39.9739 -78.0547 272° West 372 428 34,000  Level Cleveland Center
08:43AM 39.9792 -78.2214 272° West 379 436 34,000  Level Cleveland Center
08:44AM 39.9817 -78.3533 271° West 381 438 34,000  Level Cleveland Center
08:45AM 39.9861 -78.4958 272° West 385 443 34,000  Level Cleveland Center
08:47AM 39.9892 -78.6397 272° West 391 450 34,000  Level Cleveland Center
08:48AM 39.9917 -78.7839 271° West 397 457 34,000  Level Cleveland Center
08:49AM 39.9956 -78.9581 272° West 399 459 34,000  Level Cleveland Center
08:50AM 39.9986 -79.0822 272° West 399 459 34,000  Level Cleveland Center
08:51AM 39.9997 -79.2269 271° West 399 459 34,000  Level Cleveland Center
08:52AM 40.0036 -79.3989 272° West 397 457 34,000  Level Cleveland Center
08:53AM 40.0047 -79.5406 271° West 393 452 34,000  Level Cleveland Center
08:54AM 40.0072 -79.6836 271° West 393 452 34,000  Level Cleveland Center
08:55AM 40.0089 -79.8250 271° West 391 450 34,000  Level Cleveland Center
08:56AM 40.0106 -79.9669 271° West 391 450 34,000  Level Cleveland Center
08:57AM 40.0136 -80.1097 272° West 390 449 34,000  Level Cleveland Center
08:58AM 40.0142 -80.2511 270° West 389 448 34,000  Level Cleveland Center
08:59AM 40.0150 -80.4214 270° West 389 448 34,000  Level Cleveland Center
09:00AM 40.0161 -80.5625 271° West 389 448 34,000  Level Cleveland Center
09:01AM 40.0164 -80.7025 270° West 388 447 34,000  Level Cleveland Center
09:02AM 40.0175 -80.8428 271° West 388 447 34,000  Level Cleveland Center
09:03AM 40.0144 -80.9908 269° West 387 445 34,000  Level Indianapolis Center
09:04AM 40.0128 -81.1314 269° West 386 444 34,000  Level Indianapolis Center
09:05AM 40.0100 -81.2747 269° West 387 445 34,000  Level Indianapolis Center
09:06AM 40.0075 -81.4381 269° West 387 445 34,000  Level Indianapolis Center
09:07AM 40.0050 -81.5800 269° West 386 444 34,000  Level Indianapolis Center
09:08AM 40.0022 -81.7203 269° West 386 444 34,000  Level Indianapolis Center
09:09AM 39.9989 -81.8619 268° West 386 444 34,000  Level Indianapolis Center
09:10AM 39.9956 -82.0050 268° West 387 445 34,000  Level Indianapolis Center
09:11AM 39.9914 -82.1464 268° West 387 445 34,000  Level Indianapolis Center
09:12AM 39.9883 -82.2861 268° West 387 445 34,000  Level Indianapolis Center
09:13AM 39.9839 -82.4272 268° West 386 444 34,000  Level Indianapolis Center
09:14AM 39.9797 -82.5900 268° West 386 444 34,000  Level Indianapolis Center
09:15AM 39.9756 -82.7314 268° West 385 443 34,000  Level Indianapolis Center
09:17AM 39.9722 -82.8658 268° West 378 435 34,000  Level Indianapolis Center
09:18AM 39.9669 -83.0000 267° West 373 429 34,000  Level Indianapolis Center
09:19AM 39.9644 -83.1353 269° West 373 429 34,000  Level Indianapolis Center
09:20AM 39.9608 -83.2703 268° West 373 429 34,000  Level Indianapolis Center
09:21AM 39.9569 -83.4050 268° West 373 429 34,000  Level Indianapolis Center
09:22AM 39.9494 -83.5681 267° West 375 432 34,000  Level Indianapolis Center
09:23AM 39.9436 -83.7025 267° West 375 432 34,000  Level Indianapolis Center
09:24AM 39.9375 -83.8353 267° West 371 427 34,000  Level Indianapolis Center
09:25AM 39.9344 -83.9561 268° West 361 415 34,000  Level Indianapolis Center
09:26AM 39.9300 -84.0861 267° West 360 414 34,000 120 Level Indianapolis Center
09:27AM 39.9217 -84.2394 266° West 359 413 34,300 420 Climbing Indianapolis Center
09:28AM 39.9172 -84.3678 267° West 357 411 34,900 600 Climbing Indianapolis Center
09:29AM 39.9125 -84.5000 267° West 360 414 35,600 480 Climbing Indianapolis Center
09:30AM 39.9069 -84.6333 267° West 366 421 36,000 180 Climbing Indianapolis Center
09:31AM 39.9006 -84.7714 267° West 376 433 36,000  Level Indianapolis Center
09:32AM 39.8922 -84.9375 266° West 381 438 36,000  Level Indianapolis Center
09:33AM 39.8861 -85.0739 267° West 381 438 36,000  Level Indianapolis Center
09:34AM 39.8789 -85.2150 266° West 385 443 36,000  Level Indianapolis Center
09:35AM 39.8717 -85.3606 266° West 398 458 36,000  Level Indianapolis Center
09:36AM 39.8631 -85.5072 266° West 402 463 36,000  Level Indianapolis Center
09:37AM 39.8553 -85.6522 266° West 403 464 36,000  Level Indianapolis Center
09:38AM 39.8456 -85.8283 266° West 404 465 36,000  Level Indianapolis Center
09:39AM 39.8381 -85.9733 266° West 404 465 36,000  Level Indianapolis Center
09:40AM 39.8292 -86.1178 265° West 404 465 36,000  Level Indianapolis Center
09:42AM 39.8153 -86.3992 266° West 403 464 36,000  Level Kansas City Center
09:43AM 39.8178 -86.5414 271° West 396 456 36,000  Level Kansas City Center
09:44AM 39.8206 -86.7139 271° West 396 456 36,000  Level Kansas City Center
09:45AM 39.8242 -86.8578 272° West 396 456 36,000  Level Kansas City Center
09:46AM 39.8256 -87.0000 271° West 396 456 36,000  Level Kansas City Center
09:47AM 39.8278 -87.1403 271° West 394 453 36,000  Level Kansas City Center
09:49AM 39.8289 -87.2819 271° West 393 452 36,000  Level Kansas City Center
09:50AM 39.8319 -87.4217 272° West 392 451 36,000  Level Kansas City Center
09:51AM 39.8336 -87.5636 271° West 392 451 36,000  Level Kansas City Center
09:52AM 39.8358 -87.7333 271° West 391 450 36,000  Level Kansas City Center
09:53AM 39.8386 -87.8628 272° West 390 449 36,000  Level Indianapolis Center
09:54AM 39.8392 -88.0322 270° West 391 450 36,000  Level Indianapolis Center
09:55AM 39.8378 -88.1575 269° West 393 452 36,000  Level Kansas City Center
09:56AM 39.8394 -88.2894 271° West 393 452 36,000  Level Kansas City Center
09:57AM 39.8406 -88.4586 271° West 391 450 36,000  Level Kansas City Center
09:58AM 39.8417 -88.5992 271° West 388 447 36,000  Level Kansas City Center
09:59AM 39.8422 -88.7408 270° West 389 448 36,000  Level Kansas City Center
10:00AM 39.8419 -88.8806 270° West 389 448 36,000  Level Kansas City Center
10:01AM 39.8414 -89.0208 270° West 388 447 36,000  Level Kansas City Center
10:02AM 39.8417 -89.1597 270° West 387 445 36,000  Level Kansas City Center
10:03AM 39.8414 -89.3011 270° West 387 445 36,000  Level Kansas City Center
10:04AM 39.8408 -89.4683 270° West 387 445 36,000  Level Kansas City Center
10:05AM 39.8394 -89.6097 269° West 387 445 36,000  Level Kansas City Center
10:06AM 39.8400 -89.7500 270° West 387 445 36,000  Level Kansas City Center
10:07AM 39.8411 -89.8878 271° West 387 445 36,000  Level Kansas City Center
10:08AM 39.8433 -90.0272 271° West 387 445 36,000  Level Kansas City Center
10:09AM 39.8444 -90.1681 271° West 387 445 36,000  Level Kansas City Center
10:10AM 39.8453 -90.3075 270° West 387 445 36,000  Level Kansas City Center
10:11AM 39.8464 -90.4781 271° West 387 445 36,000  Level Kansas City Center
10:12AM 39.8467 -90.6189 270° West 387 445 36,000  Level Kansas City Center
10:13AM 39.8472 -90.7592 270° West 387 445 36,000  Level Kansas City Center
10:14AM 39.8472 -90.9014 270° West 388 447 36,000  Level Kansas City Center
10:15AM 39.8467 -91.0467 270° West 388 447 36,000  Level Kansas City Center
10:16AM 39.8461 -91.1864 270° West 388 447 36,000  Level Kansas City Center
10:17AM 39.8453 -91.3272 270° West 388 447 36,000  Level Kansas City Center
10:18AM 39.8342 -91.4683 264° West 390 449 36,000  Level Kansas City Center
10:20AM 39.8203 -91.6383 264° West 394 453 36,000  Level Kansas City Center
10:21AM 39.8117 -91.7786 265° West 394 453 36,000  Level Kansas City Center
10:22AM 39.8006 -91.9194 264° West 393 452 36,000  Level Kansas City Center
10:23AM 39.7886 -92.0594 264° West 390 449 36,000 -420 Level Kansas City Center
10:24AM 39.7775 -92.2000 264° West 390 449 35,200 -1,320 Descending Kansas City Center
10:25AM 39.7639 -92.3653 264° West 390 449 33,300 -1,920 Descending Kansas City Center
10:26AM 39.7528 -92.5028 264° West 385 443 31,400 -1,920 Descending Kansas City Center
10:27AM 39.7400 -92.6458 263° West 391 450 29,400 -1,920 Descending Kansas City Center
10:28AM 39.7289 -92.7853 264° West 391 450 27,500 -1,920 Descending Kansas City Center
10:29AM 39.7161 -92.9222 263° West 387 445 25,600 -1,860 Descending Kansas City Center
10:30AM 39.7044 -93.0556 264° West 380 437 23,700 -1,860 Descending Kansas City Center
10:31AM 39.6933 -93.1836 264° West 366 421 21,800 -1,920 Descending Kansas City Center
10:32AM 39.6797 -93.3353 263° West 357 411 19,700 -1,920 Descending Kansas City Center
10:33AM 39.6681 -93.4611 263° West 357 411 17,900 -1,740 Descending Kansas City Center
10:34AM 39.6581 -93.5808 264° West 343 395 16,200 -1,680 Descending Kansas City Center
10:35AM 39.6486 -93.6958 264° West 326 375 14,500 -1,680 Descending Kansas City Center
10:36AM 39.6364 -93.8122 262° West 317 365 12,900 -1,740 Descending Kansas City Center
10:37AM 39.6003 -93.9381 250° West 344 396 10,900 -1,320 Descending Kansas City Center
10:38AM 39.5542 -94.0258 236° Southwest 302 348 10,200 -1,260 Descending Kansas City Center
10:39AM 39.5197 -94.1208 245° Southwest 260 299 8,400 -1,560 Descending Kansas City Center
10:40AM 39.5042 -94.2033 256° West 248 285 7,000 -720 Descending Kansas City Center
10:41AM 39.4856 -94.2972 256° West 245 282 7,000  Level Kansas City Center
10:42AM 39.4703 -94.3794 256° West 244 281 7,000 -600 Level Kansas City Center
10:43AM 39.4514 -94.4747 256° West 244 281 5,800 -1,380 Descending Kansas City Center
10:44AM 39.4369 -94.5542 257° West 240 276 4,200 -1,020 Descending Kansas City Center
10:45AM 39.4061 -94.6336 243° Southwest 233 268 3,700 -1,020 Descending Kansas City Center
10:46AM 39.3689 -94.6758 221° Southwest 185 213 2,200 -1,080 Descending Kansas City Center
10:47AM 39.3317 -94.6942 201° Southwest 131 151 1,500 -600 Descending Kansas City Center
10:48AM 39.2992 -94.7042 193° South 120 138 1,000 -540 Descending Kansas City Center